Time;durP1;ratioP1;P1;durP2;ratioP2;P2;SDS_P1;SDS_P2;PMS_P1;PMS_P2;Temp;Humidity;BMP_temperature;BMP_pressure;BME280_temperature;BME280_humidity;BME280_pressure;Samples;Min_cycle;Max_cycle;Signal;HPM_P1;HPM_P2
2023/03/23 00:01:21;;;;;;;9.10;3.22;;;;;;;-146.27;100.00;83392.72;5084377;28;20110;-70
2023/03/23 00:03:48;;;;;;;8.30;2.88;;;;;;;-146.27;100.00;83394.75;5085910;28;20049;-69
2023/03/23 00:06:17;;;;;;;10.68;3.05;;;;;;;-146.27;100.00;83408.81;5076662;28;20077;-69
2023/03/23 00:08:45;;;;;;;7.78;3.42;;;;;;;-146.27;100.00;83432.91;5078578;28;20123;-69
2023/03/23 00:11:21;;;;;;;5.80;2.70;;;;;;;-146.27;100.00;83390.72;5072673;28;20024;-69
2023/03/23 00:13:52;;;;;;;8.82;2.53;;;;;;;-146.27;100.00;83354.56;5077985;28;20028;-70
2023/03/23 00:16:28;;;;;;;4.22;2.28;;;;;;;-146.27;100.00;83406.78;5085224;28;20040;-69
2023/03/23 00:18:54;;;;;;;5.55;2.63;;;;;;;-146.27;100.00;83412.81;5093305;28;20060;-68
2023/03/23 00:21:25;;;;;;;6.65;2.50;;;;;;;-146.27;100.00;83398.75;5082545;28;20032;-69
2023/03/23 00:23:53;;;;;;;7.28;2.55;;;;;;;-146.27;100.00;83380.69;5082506;28;20032;-68
2023/03/23 00:26:19;;;;;;;7.25;2.75;;;;;;;-146.27;100.00;83386.69;5107854;28;20028;-68
2023/03/23 00:28:46;;;;;;;7.78;2.28;;;;;;;-146.27;100.00;83396.75;5087677;28;20100;-69
2023/03/23 00:31:12;;;;;;;4.85;1.83;;;;;;;-146.27;100.00;83402.78;5092802;28;20032;-69
2023/03/23 00:33:40;;;;;;;5.00;2.25;;;;;;;-146.27;100.00;83428.91;5086620;28;20059;-69
2023/03/23 00:36:08;;;;;;;4.88;2.10;;;;;;;-146.27;100.00;83396.75;5092910;28;20420;-69
2023/03/23 00:38:35;;;;;;;6.55;2.67;;;;;;;-146.27;100.00;83360.59;5088290;28;20491;-70
2023/03/23 00:41:02;;;;;;;7.13;2.28;;;;;;;-146.27;100.00;83380.69;5083424;28;20108;-69
2023/03/23 00:43:28;;;;;;;4.82;2.33;;;;;;;-146.27;100.00;83376.66;5093415;28;20035;-69
2023/03/23 00:45:55;;;;;;;6.38;2.42;;;;;;;-146.27;100.00;83366.59;5083682;28;20069;-69
2023/03/23 00:48:21;;;;;;;7.85;2.13;;;;;;;-146.27;100.00;83408.81;5084361;28;20035;-69
2023/03/23 00:50:46;;;;;;;5.28;2.40;;;;;;;-146.27;100.00;83374.66;5087233;28;20016;-69
2023/03/23 00:53:12;;;;;;;3.60;1.80;;;;;;;-146.27;100.00;83430.91;5092064;28;20032;-69
2023/03/23 00:55:37;;;;;;;4.93;2.38;;;;;;;-146.27;100.00;83392.72;5085784;28;20020;-70
2023/03/23 00:58:03;;;;;;;5.57;2.92;;;;;;;-146.27;100.00;83412.81;5085945;28;20046;-69
2023/03/23 01:00:28;;;;;;;5.47;2.15;;;;;;;-146.27;100.00;83394.75;5082082;28;20086;-70
2023/03/23 01:02:54;;;;;;;5.90;2.30;;;;;;;-146.27;100.00;83360.59;5077640;28;20028;-70
2023/03/23 01:05:20;;;;;;;7.65;2.15;;;;;;;-146.27;100.00;83430.91;5085917;28;20422;-69
2023/03/23 01:07:46;;;;;;;4.32;2.03;;;;;;;-146.27;100.00;83398.75;5087654;28;20486;-70
2023/03/23 01:10:17;;;;;;;8.85;2.33;;;;;;;-146.27;100.00;83390.72;5085917;28;20098;-69
2023/03/23 01:12:45;;;;;;;3.58;2.10;;;;;;;-146.27;100.00;83402.78;5090470;28;20017;-70
2023/03/23 01:15:17;;;;;;;9.98;2.55;;;;;;;-146.27;100.00;83416.84;5080971;28;20081;-69
2023/03/23 01:17:43;;;;;;;4.00;2.03;;;;;;;-146.27;100.00;83376.66;5093252;28;20481;-68
2023/03/23 01:20:11;;;;;;;9.50;2.40;;;;;;;-146.27;100.00;83386.69;5084794;28;20035;-68
2023/03/23 01:22:38;;;;;;;4.72;2.22;;;;;;;-146.27;100.00;83370.63;5081825;28;20411;-68
2023/03/23 01:25:04;;;;;;;4.65;2.05;;;;;;;-146.27;100.00;83412.81;5086688;28;20028;-70
2023/03/23 01:27:29;;;;;;;6.45;2.30;;;;;;;-146.27;100.00;83372.63;5080223;28;20033;-68
2023/03/23 01:29:55;;;;;;;7.53;2.10;;;;;;;-146.27;100.00;83352.53;5085576;28;20046;-68
2023/03/23 01:32:20;;;;;;;4.90;2.13;;;;;;;-146.27;100.00;83412.81;5081607;28;20032;-69
2023/03/23 01:34:46;;;;;;;6.30;2.15;;;;;;;-146.27;100.00;83398.75;5075701;28;20399;-68
2023/03/23 01:37:11;;;;;;;3.42;1.85;;;;;;;-146.27;100.00;83356.56;5093021;28;20036;-69
2023/03/23 01:39:37;;;;;;;4.50;1.40;;;;;;;-146.27;100.00;83352.53;5085586;28;20585;-69
2023/03/23 01:42:03;;;;;;;2.78;1.50;;;;;;;-146.27;100.00;83362.59;5078891;28;20035;-68
2023/03/23 01:44:31;;;;;;;4.80;1.75;;;;;;;-146.27;100.00;83388.72;5084965;28;20023;-69
2023/03/23 01:46:57;;;;;;;2.45;1.35;;;;;;;-146.27;100.00;83360.59;5080765;28;20395;-68
2023/03/23 01:49:29;;;;;;;7.65;2.05;;;;;;;-146.27;100.00;83400.78;5092783;28;20112;-69
2023/03/23 01:52:02;;;;;;;2.58;1.45;;;;;;;-146.27;100.00;83406.78;5082896;28;20032;-70
2023/03/23 01:54:29;;;;;;;6.18;1.90;;;;;;;-146.27;100.00;83376.66;5088965;28;20380;-69
2023/03/23 01:57:06;;;;;;;3.85;1.65;;;;;;;-146.27;100.00;83384.69;5087060;28;20031;-68
2023/03/23 01:59:33;;;;;;;4.78;1.52;;;;;;;-146.27;100.00;83376.66;5076405;28;20028;-69
2023/03/23 02:02:00;;;;;;;3.65;1.80;;;;;;;-146.27;100.00;83360.59;5083393;28;20032;-69
2023/03/23 02:04:27;;;;;;;2.15;1.77;;;;;;;-146.27;100.00;83392.72;5072858;28;20024;-68
2023/03/23 02:06:53;;;;;;;8.65;2.45;;;;;;;-146.27;100.00;83402.78;5082649;28;20028;-69
2023/03/23 02:09:19;;;;;;;5.03;1.70;;;;;;;-146.27;100.00;83356.56;5072907;28;20426;-69
2023/03/23 02:11:45;;;;;;;5.93;1.60;;;;;;;-146.27;100.00;83380.69;5075131;28;20024;-69
2023/03/23 02:14:12;;;;;;;4.13;1.88;;;;;;;-146.27;100.00;83404.78;5076400;28;20028;-69
2023/03/23 02:16:48;;;;;;;5.47;1.80;;;;;;;-146.27;100.00;83378.66;5086173;28;20024;-69
2023/03/23 02:19:32;;;;;;;4.45;1.83;;;;;;;-146.27;100.00;83376.66;5071287;28;20295;-69
2023/03/23 02:22:19;;;;;;;2.55;1.33;;;;;;;-146.27;100.00;83412.81;5090296;28;20028;-69
2023/03/23 02:25:33;;;;;;;4.28;1.88;;;;;;;-146.27;100.00;83398.75;5091138;28;20093;-70
2023/03/23 02:28:13;;;;;;;6.13;2.10;;;;;;;-146.27;100.00;83418.84;5060833;28;20044;-69
2023/03/23 02:31:11;;;;;;;5.47;1.70;;;;;;;-146.27;100.00;83386.69;5084973;28;20032;-69
2023/03/23 02:33:39;;;;;;;5.57;1.45;;;;;;;-146.27;100.00;83360.59;5072394;28;20073;-69
2023/03/23 02:36:24;;;;;;;5.47;1.52;;;;;;;-146.27;100.00;83346.53;5086834;28;20063;-69
2023/03/23 02:38:59;;;;;;;7.28;1.55;;;;;;;-146.27;100.00;83432.91;5081738;28;20583;-69
2023/03/23 02:41:31;;;;;;;10.77;1.85;;;;;;;-146.27;100.00;83408.81;5082511;28;20032;-69
2023/03/23 02:43:57;;;;;;;4.93;1.63;;;;;;;-146.27;100.00;83376.66;5083771;28;20024;-67
2023/03/23 02:46:25;;;;;;;4.35;1.80;;;;;;;-146.27;100.00;83402.78;5087225;28;20079;-68
2023/03/23 02:48:55;;;;;;;4.82;2.05;;;;;;;-146.27;100.00;83384.69;5092063;28;20016;-68
2023/03/23 02:51:23;;;;;;;5.63;1.60;;;;;;;-146.27;100.00;83372.63;5081360;28;20028;-69
2023/03/23 02:53:51;;;;;;;3.88;1.63;;;;;;;-146.27;100.00;83344.50;5083962;28;20526;-68
2023/03/23 02:56:18;;;;;;;5.55;1.60;;;;;;;-146.27;100.00;83428.91;5073826;28;20028;-68
2023/03/23 02:58:44;;;;;;;4.43;2.03;;;;;;;-146.27;100.00;83394.75;5082463;28;20057;-70
2023/03/23 03:01:32;;;;;;;7.90;1.88;;;;;;;-146.27;100.00;83380.69;5082092;28;20123;-69
2023/03/23 03:04:01;;;;;;;6.00;2.28;;;;;;;-146.27;100.00;83344.50;5079984;28;20518;-68
2023/03/23 03:06:39;;;;;;;5.40;1.85;;;;;;;-146.27;100.00;83388.72;5083221;28;20087;-68
2023/03/23 03:09:29;;;;;;;8.32;1.50;;;;;;;-146.27;100.00;83394.75;5072108;28;20052;-69
2023/03/23 03:12:01;;;;;;;7.90;2.00;;;;;;;-146.27;100.00;83364.59;5080715;28;20471;-69
2023/03/23 03:14:35;;;;;;;8.95;1.90;;;;;;;-146.27;100.00;83402.78;5087047;28;20028;-69
2023/03/23 03:17:26;;;;;;;5.55;1.65;;;;;;;-146.27;100.00;83475.13;5086952;28;20032;-69
2023/03/23 03:19:57;;;;;;;4.10;1.67;;;;;;;-146.27;100.00;83493.19;5080777;28;20034;-69
2023/03/23 03:22:28;;;;;;;4.55;1.60;;;;;;;-146.27;100.00;83501.22;5086248;28;20032;-69
2023/03/23 03:24:56;;;;;;;3.60;1.48;;;;;;;-146.27;100.00;83523.34;5088266;28;20053;-69
2023/03/23 03:27:24;;;;;;;8.25;2.47;;;;;;;-146.27;100.00;83561.53;5090869;28;20725;-70
2023/03/23 03:29:56;;;;;;;4.13;1.88;;;;;;;-146.27;100.00;83583.63;5077522;28;20388;-70
2023/03/23 03:32:26;;;;;;;7.38;2.30;;;;;;;-146.27;100.00;83599.69;5081916;28;20055;-71
2023/03/23 03:34:52;;;;;;;6.85;2.40;;;;;;;-146.27;100.00;83603.72;5083674;28;20024;-70
2023/03/23 03:37:18;;;;;;;5.80;2.40;;;;;;;-146.27;100.00;83625.81;5074594;28;20058;-70
2023/03/23 03:39:44;;;;;;;7.43;2.30;;;;;;;-146.27;100.00;83633.84;5076951;28;20031;-70
2023/03/23 03:42:09;;;;;;;6.63;2.47;;;;;;;-146.27;100.00;83662.00;5098432;28;20024;-70
2023/03/23 03:44:35;;;;;;;4.57;2.22;;;;;;;-146.27;100.00;83631.84;5092055;28;20028;-70
2023/03/23 03:47:00;;;;;;;10.60;2.55;;;;;;;-146.27;100.00;83619.78;5091421;28;20020;-71
2023/03/23 03:49:26;;;;;;;5.35;2.40;;;;;;;-146.27;100.00;83657.97;5087865;28;20039;-70
2023/03/23 03:51:52;;;;;;;7.15;2.78;;;;;;;-146.27;100.00;83649.94;5081946;28;20075;-71
2023/03/23 03:54:17;;;;;;;10.07;2.20;;;;;;;-146.27;100.00;83694.13;5090225;28;20052;-71
2023/03/23 03:56:43;;;;;;;8.95;2.80;;;;;;;-146.27;100.00;83649.94;5095020;28;20063;-70
2023/03/23 03:59:09;;;;;;;9.30;2.60;;;;;;;-146.27;100.00;83698.16;5094777;28;20028;-70
2023/03/23 04:01:37;;;;;;;6.38;2.42;;;;;;;-146.27;100.00;83688.09;5092983;28;20175;-71
2023/03/23 04:04:05;;;;;;;10.52;3.15;;;;;;;-146.27;100.00;83670.03;5091859;28;20028;-72
2023/03/23 04:06:32;;;;;;;7.47;2.90;;;;;;;-146.27;100.00;83643.91;5093500;28;20032;-70
2023/03/23 04:08:58;;;;;;;12.52;3.13;;;;;;;-146.27;100.00;83692.13;5079331;28;20047;-71
2023/03/23 04:11:25;;;;;;;5.15;2.83;;;;;;;-146.27;100.00;83664.00;5093104;28;20034;-71
2023/03/23 04:13:50;;;;;;;9.77;3.22;;;;;;;-146.27;100.00;83680.06;5076369;28;20090;-71
2023/03/23 04:16:16;;;;;;;9.60;2.58;;;;;;;-146.27;100.00;83728.31;5076941;28;20028;-71
2023/03/23 04:18:42;;;;;;;9.77;3.45;;;;;;;-146.27;100.00;83686.09;5094989;28;20532;-71
2023/03/23 04:21:08;;;;;;;7.10;3.17;;;;;;;-146.27;100.00;83704.19;5079247;28;20480;-70
2023/03/23 04:23:35;;;;;;;13.88;3.35;;;;;;;-146.27;100.00;83722.28;5082702;28;20408;-70
2023/03/23 04:26:01;;;;;;;9.85;3.08;;;;;;;-146.27;100.00;83694.13;5093872;28;20024;-70
2023/03/23 04:28:27;;;;;;;11.38;3.50;;;;;;;-146.27;100.00;83740.34;5085833;28;20070;-71
2023/03/23 04:30:53;;;;;;;15.23;2.85;;;;;;;-146.27;100.00;83714.22;5091162;28;20031;-70
2023/03/23 04:33:21;;;;;;;10.82;2.42;;;;;;;-146.27;100.00;83666.00;5087511;28;20116;-70
2023/03/23 04:35:47;;;;;;;9.80;2.20;;;;;;;-146.27;100.00;83720.25;5080495;28;20052;-70
2023/03/23 04:38:14;;;;;;;13.20;2.13;;;;;;;-146.27;100.00;83700.16;5085730;28;20472;-70
2023/03/23 04:40:41;;;;;;;10.98;2.92;;;;;;;-146.27;100.00;83702.19;5090244;28;20051;-69
2023/03/23 04:43:07;;;;;;;9.88;1.83;;;;;;;-146.27;100.00;83670.03;5088893;28;20099;-69
2023/03/23 04:45:33;;;;;;;12.43;2.05;;;;;;;-146.27;100.00;83657.97;5086398;28;20024;-69
2023/03/23 04:48:01;;;;;;;6.45;1.70;;;;;;;-146.27;100.00;83629.84;5088478;28;21908;-69
2023/03/23 04:50:30;;;;;;;13.48;2.17;;;;;;;-146.27;100.00;83629.84;5090135;28;20039;-70
2023/03/23 04:52:58;;;;;;;5.80;1.70;;;;;;;-146.27;100.00;83609.75;5092946;28;20506;-71
2023/03/23 04:55:25;;;;;;;7.25;1.77;;;;;;;-146.27;100.00;83649.94;5086337;28;20538;-71
2023/03/23 04:57:51;;;;;;;10.75;2.58;;;;;;;-146.27;100.00;83641.91;5086037;28;20027;-71
2023/03/23 05:00:17;;;;;;;12.13;2.08;;;;;;;-146.27;100.00;83625.81;5092190;28;20412;-72
2023/03/23 05:02:46;;;;;;;16.63;2.47;;;;;;;-146.27;100.00;83698.16;5087206;28;20028;-71
2023/03/23 05:05:13;;;;;;;12.10;2.67;;;;;;;-146.27;100.00;83649.94;5087536;28;20070;-71
2023/03/23 05:07:39;;;;;;;12.70;2.50;;;;;;;-146.27;100.00;83704.19;5082877;28;20051;-70
2023/03/23 05:10:06;;;;;;;10.68;2.53;;;;;;;-146.27;100.00;83710.22;5093033;28;20020;-70
2023/03/23 05:12:31;;;;;;;13.63;3.05;;;;;;;-146.27;100.00;83726.28;5077701;28;20455;-72
2023/03/23 05:14:57;;;;;;;15.18;3.58;;;;;;;-146.27;100.00;83698.16;5084724;28;20107;-71
2023/03/23 05:17:23;;;;;;;14.50;2.90;;;;;;;-146.27;100.00;83730.31;5087591;28;20103;-70
2023/03/23 05:19:50;;;;;;;14.30;3.00;;;;;;;-146.27;100.00;83734.31;5083881;28;20532;-69
2023/03/23 05:22:16;;;;;;;20.10;2.53;;;;;;;-146.27;100.00;83728.31;5077558;28;20124;-70
2023/03/23 05:24:43;;;;;;;16.48;2.90;;;;;;;-146.27;100.00;83736.34;5090088;28;20383;-70
2023/03/23 05:27:11;;;;;;;14.95;2.92;;;;;;;-146.27;100.00;83726.28;5092004;28;20539;-70
2023/03/23 05:29:40;;;;;;;21.20;3.08;;;;;;;-146.27;100.00;83746.38;5082120;28;20024;-70
2023/03/23 05:32:07;;;;;;;16.13;2.85;;;;;;;-146.27;100.00;83760.44;5089363;28;20498;-69
2023/03/23 05:34:36;;;;;;;18.58;3.22;;;;;;;-146.27;100.00;83746.38;5078474;28;20521;-69
2023/03/23 05:37:03;;;;;;;12.98;3.15;;;;;;;-146.27;100.00;83714.22;5083643;28;20110;-69
2023/03/23 05:39:30;;;;;;;12.60;2.70;;;;;;;-146.27;100.00;83742.38;5082123;28;20032;-70
2023/03/23 05:41:56;;;;;;;17.02;2.80;;;;;;;-146.27;100.00;83734.31;5090928;28;20111;-69
2023/03/23 05:44:22;;;;;;;20.65;2.58;;;;;;;-146.27;100.00;83746.38;5084362;28;20120;-69
2023/03/23 05:46:47;;;;;;;17.45;3.00;;;;;;;-146.27;100.00;83738.34;5090366;28;20054;-70
2023/03/23 05:49:15;;;;;;;17.17;2.45;;;;;;;-146.27;100.00;83728.31;5084040;28;20396;-70
2023/03/23 05:51:41;;;;;;;20.65;3.33;;;;;;;-146.27;100.00;83754.44;5089114;28;20035;-70
2023/03/23 05:54:07;;;;;;;17.52;3.08;;;;;;;-146.27;100.00;83738.34;5081999;28;20472;-70
2023/03/23 05:56:32;;;;;;;21.88;3.78;;;;;;;-146.27;100.00;83724.28;5089418;28;20030;-70
2023/03/23 05:58:58;;;;;;;20.80;3.65;;;;;;;-146.27;100.00;83744.38;5088706;28;20077;-70
2023/03/23 06:01:24;;;;;;;16.30;3.20;;;;;;;-146.27;100.00;83726.28;5087238;28;20102;-69
2023/03/23 06:03:53;;;;;;;21.35;2.92;;;;;;;-146.27;100.00;83714.22;5094537;28;20072;-70
2023/03/23 06:06:22;;;;;;;19.17;3.97;;;;;;;-146.27;100.00;83718.25;5090878;28;20099;-69
2023/03/23 06:08:50;;;;;;;27.17;3.30;;;;;;;-146.27;100.00;83742.38;5094157;28;20066;-70
2023/03/23 06:11:15;;;;;;;21.25;3.70;;;;;;;-146.27;100.00;83690.13;5092440;28;20483;-70
2023/03/23 06:13:41;;;;;;;22.30;3.28;;;;;;;-146.27;100.00;83678.06;5090167;28;20033;-69
2023/03/23 06:16:08;;;;;;;22.42;3.03;;;;;;;-146.27;100.00;83657.97;5083749;28;20025;-70
2023/03/23 06:18:36;;;;;;;19.00;3.10;;;;;;;-146.27;100.00;83676.06;5094770;28;20119;-71
2023/03/23 06:21:05;;;;;;;20.35;3.55;;;;;;;-146.27;100.00;83651.94;5093305;28;20027;-71
2023/03/23 06:23:31;;;;;;;20.65;3.05;;;;;;;-146.27;100.00;83645.91;5101366;28;20024;-69
2023/03/23 06:26:00;;;;;;;19.38;2.90;;;;;;;-146.27;100.00;83670.03;5086563;28;20077;-70
2023/03/23 06:28:26;;;;;;;21.88;2.88;;;;;;;-146.27;100.00;83694.13;5079503;28;20016;-70
2023/03/23 06:30:52;;;;;;;19.58;2.92;;;;;;;-146.27;100.00;83666.00;5089978;28;20178;-70
2023/03/23 06:33:18;;;;;;;24.02;3.00;;;;;;;-146.27;100.00;83635.88;5090364;28;20032;-70
2023/03/23 06:35:43;;;;;;;23.38;5.00;;;;;;;-146.27;100.00;83730.31;5080535;28;20040;-71
2023/03/23 06:38:09;;;;;;;21.42;3.92;;;;;;;-146.27;100.00;83649.94;5082614;28;20035;-69
2023/03/23 06:40:35;;;;;;;13.32;2.97;;;;;;;-146.27;100.00;83674.03;5083547;28;20109;-69
2023/03/23 06:43:02;;;;;;;12.40;2.38;;;;;;;-146.27;100.00;83651.94;5084644;28;20016;-71
2023/03/23 06:45:28;;;;;;;17.52;2.67;;;;;;;-146.27;100.00;83605.72;5077213;28;20542;-69
2023/03/23 06:47:53;;;;;;;13.45;3.20;;;;;;;-146.27;100.00;83611.75;5087086;28;20024;-69
2023/03/23 06:50:19;;;;;;;17.27;2.42;;;;;;;-146.27;100.00;83629.84;5061346;28;20028;-70
2023/03/23 06:52:49;;;;;;;15.25;2.42;;;;;;;-146.27;100.00;83593.66;5084745;28;20067;-70
2023/03/23 06:55:15;;;;;;;19.58;2.75;;;;;;;-146.27;100.00;83659.97;5081504;28;20040;-70
2023/03/23 06:57:42;;;;;;;15.60;2.90;;;;;;;-146.27;100.00;83639.88;5081212;28;20020;-69
2023/03/23 07:00:11;;;;;;;15.85;2.80;;;;;;;-146.27;100.00;83637.88;5078863;28;20024;-70
2023/03/23 07:02:36;;;;;;;16.73;3.40;;;;;;;-146.27;100.00;83657.97;5077503;28;20045;-70
2023/03/23 07:05:03;;;;;;;22.63;3.28;;;;;;;-146.27;100.00;83653.94;5082400;28;20115;-70
2023/03/23 07:07:29;;;;;;;16.35;3.40;;;;;;;-146.27;100.00;83617.78;5078928;28;20140;-71
2023/03/23 07:09:54;;;;;;;19.08;2.28;;;;;;;-146.27;100.00;83649.94;5080978;28;20528;-70
2023/03/23 07:12:20;;;;;;;12.98;2.45;;;;;;;-146.27;100.00;83617.78;5083446;28;20028;-69
2023/03/23 07:14:46;;;;;;;15.68;2.33;;;;;;;-146.27;100.00;83664.00;5084022;28;20119;-70
2023/03/23 07:17:11;;;;;;;16.13;2.72;;;;;;;-146.27;100.00;83619.78;5086153;28;20032;-70
2023/03/23 07:19:40;;;;;;;13.25;2.53;;;;;;;-146.27;100.00;83653.94;5081115;28;20047;-70
2023/03/23 07:22:06;;;;;;;16.55;2.33;;;;;;;-146.27;100.00;83625.81;5084129;28;20468;-70
2023/03/23 07:24:32;;;;;;;29.73;3.40;;;;;;;-146.27;100.00;83649.94;5082122;28;20032;-68
2023/03/23 07:26:58;;;;;;;12.85;2.53;;;;;;;-146.27;100.00;83617.78;5081082;28;20383;-69
2023/03/23 07:29:23;;;;;;;9.38;1.80;;;;;;;-146.27;100.00;83657.97;5089831;28;20110;-69
2023/03/23 07:31:49;;;;;;;7.90;2.33;;;;;;;-146.27;100.00;83635.88;5081936;28;20033;-69
2023/03/23 07:34:15;;;;;;;15.60;2.63;;;;;;;-146.27;100.00;83593.66;5085482;28;20039;-69
2023/03/23 07:36:41;;;;;;;12.55;2.20;;;;;;;-146.27;100.00;83625.81;5086531;28;20020;-69
2023/03/23 07:39:06;;;;;;;11.90;2.63;;;;;;;-146.27;100.00;83625.81;5079622;28;20031;-69
2023/03/23 07:41:32;;;;;;;11.20;2.28;;;;;;;-146.27;100.00;83581.59;5090832;28;20026;-69
2023/03/23 07:43:58;;;;;;;9.63;1.77;;;;;;;-146.27;100.00;83635.88;5087997;28;20111;-69
2023/03/23 07:46:23;;;;;;;19.70;2.17;;;;;;;-146.27;100.00;83653.94;5094809;28;20119;-70
2023/03/23 07:48:49;;;;;;;15.65;3.28;;;;;;;-146.27;100.00;83581.59;5085143;28;20032;-70
2023/03/23 07:51:16;;;;;;;12.90;2.08;;;;;;;-146.27;100.00;83603.72;5095927;28;20032;-69
2023/03/23 07:53:44;;;;;;;18.63;2.75;;;;;;;-146.27;100.00;83553.47;5085093;28;20103;-69
2023/03/23 07:56:12;;;;;;;18.08;2.75;;;;;;;-146.27;100.00;83529.38;5097639;28;20024;-69
2023/03/23 07:58:37;;;;;;;13.70;2.72;;;;;;;-146.27;100.00;83565.53;5075152;28;20032;-70
2023/03/23 08:01:03;;;;;;;14.25;2.13;;;;;;;-146.27;100.00;83545.44;5080171;28;20468;-69
2023/03/23 08:03:29;;;;;;;17.00;1.90;;;;;;;-146.27;100.00;83473.09;5075342;28;20040;-70
2023/03/23 08:05:58;;;;;;;18.63;2.38;;;;;;;-146.27;100.00;83547.44;5079230;28;20029;-69
2023/03/23 08:08:24;;;;;;;12.68;2.10;;;;;;;-146.27;100.00;83557.50;5078492;28;20040;-69
2023/03/23 08:10:50;;;;;;;15.50;2.58;;;;;;;-146.27;100.00;83561.53;5087409;28;20085;-69
2023/03/23 08:13:16;;;;;;;14.90;2.70;;;;;;;-146.27;100.00;83549.47;5075934;28;20021;-69
2023/03/23 08:15:41;;;;;;;18.80;2.38;;;;;;;-146.27;100.00;83527.34;5084697;28;20028;-69
2023/03/23 08:18:06;;;;;;;13.95;2.97;;;;;;;-146.27;100.00;83517.31;5082400;28;20031;-68
2023/03/23 08:20:32;;;;;;;11.57;2.53;;;;;;;-146.27;100.00;83499.22;5077225;28;20380;-69
2023/03/23 08:22:59;;;;;;;10.20;1.95;;;;;;;-146.27;100.00;83489.19;5094318;28;20020;-69
2023/03/23 08:25:25;;;;;;;9.20;2.70;;;;;;;-146.27;100.00;83483.16;5091105;28;20105;-69
2023/03/23 08:27:52;;;;;;;8.25;2.15;;;;;;;-146.27;100.00;83485.16;5088278;28;20027;-69
2023/03/23 08:30:20;;;;;;;17.55;4.70;;;;;;;-146.27;100.00;83573.56;5090793;28;20028;-69
2023/03/23 08:32:47;;;;;;;17.40;2.35;;;;;;;-146.27;100.00;83515.31;5094556;28;20384;-68
2023/03/23 08:35:14;;;;;;;15.10;3.38;;;;;;;-146.27;100.00;83485.16;5089666;28;20498;-69
2023/03/23 08:37:41;;;;;;;11.02;2.80;;;;;;;-146.27;100.00;83509.28;5085878;28;20028;-70
2023/03/23 08:40:09;;;;;;;10.88;2.30;;;;;;;-146.27;100.00;83436.94;5087322;28;20033;-69
2023/03/23 08:42:38;;;;;;;18.58;2.92;;;;;;;-146.27;100.00;83432.91;5082198;28;20032;-68
2023/03/23 08:45:08;;;;;;;16.25;2.88;;;;;;;-146.27;100.00;83408.81;5082582;28;20036;-68
2023/03/23 08:47:35;;;;;;;19.77;3.10;;;;;;;-146.27;100.00;83414.84;5087509;28;20017;-68
2023/03/23 08:50:02;;;;;;;12.15;2.72;;;;;;;-146.27;100.00;83444.97;5087148;28;20020;-67
2023/03/23 08:52:28;;;;;;;17.80;2.80;;;;;;;-146.27;100.00;83449.00;5085782;28;20508;-69
2023/03/23 08:54:54;;;;;;;16.38;3.33;;;;;;;-146.27;100.00;83396.75;5080601;28;20488;-69
2023/03/23 08:57:19;;;;;;;14.13;2.60;;;;;;;-146.27;100.00;83434.94;5087891;28;20085;-70
2023/03/23 08:59:45;;;;;;;12.65;2.97;;;;;;;-146.27;100.00;83372.63;5075101;28;20036;-69
2023/03/23 09:02:14;;;;;;;15.55;2.17;;;;;;;-146.27;100.00;83378.66;5104879;28;20078;-69
2023/03/23 09:04:42;;;;;;;15.80;3.45;;;;;;;-146.27;100.00;83418.84;5088703;28;20059;-69
2023/03/23 09:07:09;;;;;;;13.05;1.90;;;;;;;-146.27;100.00;83354.56;5081320;28;21184;-70
2023/03/23 09:09:35;;;;;;;26.08;2.58;;;;;;;-146.27;100.00;83284.22;5088469;28;20028;-69
2023/03/23 09:12:00;;;;;;;13.20;2.25;;;;;;;-146.27;97.88;83326.44;5081353;28;20139;-69
2023/03/23 09:14:26;;;;;;;13.88;3.17;;;;;;;-146.27;98.23;83276.19;5090997;28;20103;-68
2023/03/23 09:16:52;;;;;;;20.40;2.40;;;;;;;-146.27;97.27;83306.34;5090789;28;20028;-70
2023/03/23 09:19:17;;;;;;;13.25;2.50;;;;;;;-146.27;95.89;83312.34;5087950;28;20111;-69
2023/03/23 09:21:45;;;;;;;21.67;2.72;;;;;;;-146.27;96.57;83336.47;5082586;28;20026;-68
2023/03/23 09:24:11;;;;;;;16.20;2.97;;;;;;;-146.27;97.24;83290.25;5090846;28;20103;-68
2023/03/23 09:26:36;;;;;;;16.67;2.53;;;;;;;-146.27;94.40;83282.22;5088625;28;20032;-69
2023/03/23 09:29:02;;;;;;;18.58;2.55;;;;;;;-146.27;95.86;83288.25;5075602;28;20021;-68
2023/03/23 09:31:27;;;;;;;16.70;2.67;;;;;;;-146.27;93.72;83278.19;5078363;28;20107;-69
2023/03/23 09:33:56;;;;;;;9.02;1.92;;;;;;;-146.27;92.80;83248.06;5083601;28;20030;-69
2023/03/23 09:36:22;;;;;;;14.23;2.60;;;;;;;-146.27;93.78;83225.97;5081011;28;20032;-70
2023/03/23 09:38:48;;;;;;;14.60;2.50;;;;;;;-146.27;92.68;83314.38;5088002;28;20090;-69
2023/03/23 09:41:32;;;;;;;20.15;2.78;;;;;;;-146.27;93.22;83260.13;5081126;28;20605;-68
2023/03/23 09:44:39;;;;;;;13.07;2.33;;;;;;;-146.27;92.71;83332.44;5092652;28;20510;-68
2023/03/23 09:47:33;;;;;;;18.05;2.75;;;;;;;-146.27;93.06;83362.59;5084109;28;20047;-69
2023/03/23 09:50:12;;;;;;;13.15;2.55;;;;;;;-146.27;93.10;83356.56;5082497;28;20059;-68
2023/03/23 09:52:50;;;;;;;20.55;3.30;;;;;;;-146.27;94.54;83346.53;5085471;28;20016;-71
2023/03/23 09:55:18;;;;;;;14.40;2.35;;;;;;;-146.27;94.69;83336.47;5093593;28;20046;-69
2023/03/23 09:57:51;;;;;;;19.45;2.83;;;;;;;-146.27;93.60;83227.97;5092144;28;20509;-68
2023/03/23 10:00:33;;;;;;;13.23;2.65;;;;;;;-146.27;91.21;83219.94;5074925;28;20040;-69
2023/03/23 10:03:02;;;;;;;23.20;3.65;;;;;;;-146.27;89.56;83147.59;5083049;28;20107;-69
2023/03/23 10:05:40;;;;;;;22.00;3.15;;;;;;;-146.27;86.74;83075.28;5088267;28;20494;-70
2023/03/23 10:08:13;;;;;;;20.20;2.78;;;;;;;-146.27;86.27;83083.31;5074991;28;20048;-71
2023/03/23 10:11:06;;;;;;;17.42;3.42;;;;;;;-146.27;85.63;83057.19;5085901;28;20037;-70
2023/03/23 10:13:37;;;;;;;16.10;2.72;;;;;;;-146.27;83.69;83043.13;5086236;28;20495;-70
2023/03/23 10:16:08;;;;;;;12.18;2.75;;;;;;;-146.27;85.14;83155.63;5087016;28;20435;-69
2023/03/23 10:18:41;;;;;;;17.10;2.85;;;;;;;-146.27;85.09;83145.59;5090365;28;20393;-70
2023/03/23 10:21:13;;;;;;;19.30;3.53;;;;;;;-146.27;85.50;83137.56;5088678;28;20127;-69
2023/03/23 10:24:19;;;;;;;15.50;2.90;;;;;;;-146.27;86.04;83059.19;5086618;28;20032;-69
2023/03/23 10:26:54;;;;;;;16.27;3.10;;;;;;;-146.27;83.93;83031.06;5059374;28;20540;-68
2023/03/23 10:29:38;;;;;;;18.92;3.53;;;;;;;-146.27;82.39;82966.78;5077089;28;20170;-69
2023/03/23 10:32:39;;;;;;;19.92;3.00;;;;;;;-146.27;80.30;82958.75;5088085;28;20051;-68
2023/03/23 10:35:11;;;;;;;20.08;3.20;;;;;;;-146.27;80.61;83051.16;5092587;28;20392;-68
2023/03/23 10:37:43;;;;;;;19.00;3.40;;;;;;;-146.27;79.77;83095.38;5090900;28;20020;-69
2023/03/23 10:40:23;;;;;;;25.42;3.17;;;;;;;-146.27;80.49;83077.28;5086101;28;20290;-68
2023/03/23 10:42:50;;;;;;;17.95;3.05;;;;;;;-146.27;78.92;82960.75;5093079;28;20028;-68
2023/03/23 10:45:18;;;;;;;15.45;2.47;;;;;;;-146.27;76.93;82896.47;5079506;28;20035;-69
2023/03/23 10:47:49;;;;;;;19.58;3.17;;;;;;;-146.27;77.73;82789.97;5086029;28;20024;-69
2023/03/23 10:50:17;;;;;;;27.35;3.67;;;;;;;-146.27;74.00;82814.09;5091453;28;20481;-67
2023/03/23 10:52:44;;;;;;;25.80;4.45;;;;;;;-146.27;73.87;82834.19;5088335;28;20028;-69
2023/03/23 10:55:22;;;;;;;15.63;2.85;;;;;;;-146.27;73.11;82822.13;5082382;28;20476;-67
2023/03/23 10:58:01;;;;;;;18.38;2.83;;;;;;;-146.27;71.70;82685.50;5089693;28;20186;-68
2023/03/23 11:00:27;;;;;;;16.08;2.88;;;;;;;-146.27;72.68;82703.59;5091226;28;20066;-69
2023/03/23 11:03:04;;;;;;;23.17;3.38;;;;;;;-146.27;70.00;82699.59;5087828;28;20026;-68
2023/03/23 11:05:36;;;;;;;18.88;3.38;;;;;;;-146.27;66.34;82701.59;5089929;28;20084;-69
2023/03/23 11:08:02;;;;;;;14.90;2.30;;;;;;;-146.27;64.38;82705.59;5074984;28;20052;-69
2023/03/23 11:10:40;;;;;;;20.20;3.70;;;;;;;-146.27;65.06;82637.31;5087801;28;20032;-69
2023/03/23 11:13:13;;;;;;;16.15;2.80;;;;;;;-146.27;62.72;82516.78;5091150;28;20024;-69
2023/03/23 11:15:40;;;;;;;17.08;3.45;;;;;;;-146.27;61.94;82613.19;5085035;28;20475;-68